Time;durP1;ratioP1;P1;durP2;ratioP2;P2;SDS_P1;SDS_P2;PMS_P1;PMS_P2;Temp;Humidity;BMP_temperature;BMP_pressure;BME280_temperature;BME280_humidity;BME280_pressure;Samples;Min_cycle;Max_cycle;Signal;HPM_P1;HPM_P2
2023/03/25 00:08:26;;;;;;;162.60;67.20;;;9.90;99.90;;;;;;6161739;22;20070;-94
2023/03/25 00:14:53;;;;;;;213.25;82.95;;;9.80;99.90;;;;;;6314358;22;20038;-93
2023/03/25 00:18:29;;;;;;;;;;;;;;;;;;;;;
2023/03/25 00:30:01;;;;;;;;;;;;;;;;;;;;;
2023/03/25 00:37:00;;;;;;;;;;;;;;;;;;;;;
2023/03/25 00:44:05;;;;;;;167.90;66.43;;;9.70;99.90;;;;;;6138505;23;20010;-94
2023/03/25 00:47:21;;;;;;;;;;;;;;;;;;;;;
2023/03/25 00:50:53;;;;;;;141.30;61.35;;;9.70;99.90;;;;;;6134526;23;20037;-93
2023/03/25 00:53:36;;;;;;;151.73;63.58;;;9.70;99.90;;;;;;6102479;23;20006;-93
2023/03/25 00:56:04;;;;;;;150.32;61.88;;;9.70;99.90;;;;;;6101179;23;20089;-93
2023/03/25 00:58:34;;;;;;;143.60;64.22;;;9.60;99.90;;;;;;6107272;23;20021;-93
2023/03/25 01:01:17;;;;;;;139.55;62.53;;;9.60;99.90;;;;;;6104425;23;20006;-93
2023/03/25 01:03:44;;;;;;;143.70;64.93;;;9.60;99.90;;;;;;6223043;22;20042;-93
2023/03/25 01:06:14;;;;;;;122.45;57.65;;;9.60;99.90;;;;;;6224476;22;19999;-93
2023/03/25 01:08:42;;;;;;;140.32;62.70;;;9.50;99.90;;;;;;6224665;22;20008;-91
2023/03/25 01:11:19;;;;;;;124.28;57.78;;;9.50;99.90;;;;;;6224638;22;20003;-92
2023/03/25 01:13:50;;;;;;;114.82;57.85;;;9.50;99.90;;;;;;6224946;22;20011;-93
2023/03/25 01:16:17;;;;;;;109.53;53.83;;;9.50;99.90;;;;;;6250139;22;20008;-93
2023/03/25 01:18:44;;;;;;;110.15;53.70;;;9.50;99.90;;;;;;6227217;22;20158;-92
2023/03/25 01:21:10;;;;;;;117.47;56.50;;;9.50;99.90;;;;;;6240588;22;20031;-91
2023/03/25 01:23:37;;;;;;;117.70;56.60;;;9.50;99.90;;;;;;6255662;22;20077;-91
2023/03/25 01:26:04;;;;;;;125.15;57.95;;;9.60;99.90;;;;;;6253516;22;20019;-92
2023/03/25 01:28:30;;;;;;;119.32;56.45;;;9.60;99.90;;;;;;6252594;22;20337;-92
2023/03/25 01:31:03;;;;;;;119.72;57.38;;;9.60;99.90;;;;;;6252594;22;20094;-91
2023/03/25 01:33:31;;;;;;;125.20;57.05;;;9.60;99.90;;;;;;6277926;22;20142;-91
2023/03/25 01:36:02;;;;;;;114.80;57.13;;;9.50;99.90;;;;;;6252386;22;20086;-92
2023/03/25 01:38:29;;;;;;;132.07;61.00;;;9.50;99.90;;;;;;6252312;22;20026;-92
2023/03/25 01:40:56;;;;;;;110.35;53.47;;;9.50;99.90;;;;;;6252542;22;20040;-91
2023/03/25 01:43:23;;;;;;;122.68;56.10;;;9.50;99.90;;;;;;6252626;22;20040;-91
2023/03/25 01:45:50;;;;;;;126.30;59.78;;;9.40;99.90;;;;;;6252274;22;20004;-91
2023/03/25 01:48:24;;;;;;;126.65;60.83;;;9.40;99.90;;;;;;6252710;22;20008;-91
2023/03/25 01:51:01;;;;;;;;;;;9.30;99.90;;;;;;6252856;22;20007;-91
2023/03/25 01:53:31;;;;;;;131.07;59.20;;;9.30;99.90;;;;;;6278121;22;19903;-91
2023/03/25 01:56:01;;;;;;;120.28;55.35;;;9.20;99.90;;;;;;6252364;22;20003;-90
2023/03/25 01:58:30;;;;;;;120.32;55.80;;;9.10;99.90;;;;;;6252381;22;20345;-91
2023/03/25 02:00:57;;;;;;;116.38;55.13;;;9.10;99.90;;;;;;6252191;22;20077;-91
2023/03/25 02:03:24;;;;;;;110.38;52.10;;;9.00;99.90;;;;;;6252288;22;20011;-91
2023/03/25 02:05:54;;;;;;;106.82;49.67;;;9.00;99.90;;;;;;6252372;22;20003;-93
2023/03/25 02:08:25;;;;;;;93.90;48.05;;;9.00;99.90;;;;;;6252192;22;20015;-92
2023/03/25 02:10:52;;;;;;;93.90;46.63;;;9.00;99.90;;;;;;6251993;22;20000;-91
2023/03/25 02:13:19;;;;;;;82.15;44.47;;;9.00;99.90;;;;;;6252082;22;20008;-91
2023/03/25 02:16:01;;;;;;;77.68;41.78;;;9.10;99.90;;;;;;6252522;22;20035;-91
2023/03/25 02:18:37;;;;;;;81.47;42.47;;;9.10;99.90;;;;;;6251970;22;20016;-92
2023/03/25 02:21:45;;;;;;;84.15;43.30;;;9.10;99.90;;;;;;6252181;22;20087;-91
2023/03/25 02:24:52;;;;;;;75.32;40.53;;;9.10;99.90;;;;;;6251977;22;20451;-91
2023/03/25 02:27:32;;;;;;;83.38;40.83;;;9.20;99.90;;;;;;6251892;22;20340;-90
2023/03/25 02:30:29;;;;;;;80.78;39.83;;;9.20;99.90;;;;;;6256961;22;20026;-91
2023/03/25 02:33:34;;;;;;;78.55;41.58;;;9.20;99.90;;;;;;6257047;22;20015;-90
2023/03/25 02:36:20;;;;;;;72.05;39.60;;;9.20;99.90;;;;;;6257330;22;20310;-90
2023/03/25 02:39:16;;;;;;;70.53;38.60;;;9.20;99.90;;;;;;6256710;22;20015;-92
2023/03/25 02:42:22;;;;;;;73.82;39.20;;;9.20;99.90;;;;;;6214384;22;20086;-92
2023/03/25 02:45:10;;;;;;;66.28;36.50;;;9.10;99.90;;;;;;6256951;22;20418;-91
2023/03/25 02:47:45;;;;;;;70.75;38.13;;;9.10;99.90;;;;;;6256899;22;20015;-91
2023/03/25 02:50:24;;;;;;;65.57;37.47;;;9.10;99.90;;;;;;6257039;22;20367;-91
2023/03/25 02:52:56;;;;;;;57.83;33.17;;;9.20;99.90;;;;;;6257309;22;20091;-92
2023/03/25 02:55:24;;;;;;;59.08;31.38;;;9.20;99.90;;;;;;6282425;22;20015;-91
2023/03/25 02:57:56;;;;;;;61.17;33.15;;;9.30;99.90;;;;;;6256936;22;20421;-90
2023/03/25 03:00:28;;;;;;;57.40;31.95;;;9.20;99.90;;;;;;6256891;22;20007;-90
2023/03/25 03:03:01;;;;;;;58.75;32.25;;;9.10;99.90;;;;;;6282442;22;20003;-92
2023/03/25 03:05:31;;;;;;;;;;;9.00;99.90;;;;;;6257772;22;20011;-90
2023/03/25 03:08:35;;;;;;;54.45;31.25;;;9.00;99.90;;;;;;6256842;22;19903;-91
2023/03/25 03:11:14;;;;;;;52.45;30.23;;;8.90;99.90;;;;;;6256751;22;20007;-90
2023/03/25 03:13:40;;;;;;;48.83;29.73;;;8.80;99.90;;;;;;6256487;22;20034;-92
2023/03/25 03:16:32;;;;;;;54.33;29.38;;;8.70;99.90;;;;;;6256617;22;20082;-90
2023/03/25 03:19:39;;;;;;;49.85;28.65;;;8.80;99.90;;;;;;6256697;22;20011;-91
2023/03/25 03:22:24;;;;;;;48.05;27.15;;;8.70;99.90;;;;;;6256835;22;20136;-91
2023/03/25 03:25:08;;;;;;;41.55;27.15;;;8.70;99.90;;;;;;6256684;22;20011;-90
2023/03/25 03:27:55;;;;;;;50.72;29.38;;;8.70;99.90;;;;;;6256650;22;20065;-90
2023/03/25 03:30:28;;;;;;;49.65;29.25;;;8.70;99.90;;;;;;6225868;22;20098;-90
2023/03/25 03:32:59;;;;;;;46.25;28.23;;;8.60;99.90;;;;;;6226308;22;20010;-90
2023/03/25 03:35:37;;;;;;;50.55;28.80;;;8.60;99.90;;;;;;6160250;23;20079;-92
2023/03/25 03:38:10;;;;;;;51.25;29.88;;;8.60;99.90;;;;;;6185182;23;20047;-90
2023/03/25 03:40:43;;;;;;;50.15;29.75;;;8.60;99.90;;;;;;6185618;23;20522;-90
2023/03/25 03:43:30;;;;;;;54.13;31.00;;;8.60;99.90;;;;;;6184866;23;20009;-91
2023/03/25 03:46:05;;;;;;;56.72;31.67;;;8.50;99.90;;;;;;6185321;23;20104;-92
2023/03/25 03:48:39;;;;;;;57.60;31.30;;;8.50;99.90;;;;;;6184868;23;20009;-92
2023/03/25 03:51:12;;;;;;;68.07;34.70;;;8.40;99.90;;;;;;6184953;23;20168;-91
2023/03/25 03:53:57;;;;;;;57.80;31.92;;;8.40;99.90;;;;;;6159948;23;20393;-90
2023/03/25 03:56:45;;;;;;;58.17;32.33;;;8.40;99.90;;;;;;6185133;23;20009;-90
2023/03/25 03:59:41;;;;;;;54.95;30.63;;;8.30;99.90;;;;;;6184554;23;20068;-92
2023/03/25 04:02:38;;;;;;;53.25;29.90;;;8.30;99.90;;;;;;6185287;23;20009;-91
2023/03/25 04:05:12;;;;;;;51.78;29.38;;;8.20;99.90;;;;;;6019975;23;20015;-90
2023/03/25 04:07:58;;;;;;;49.78;29.30;;;8.10;99.90;;;;;;6101017;23;20487;-91
2023/03/25 04:10:45;;;;;;;46.45;29.02;;;8.20;99.90;;;;;;6101192;23;20006;-92
2023/03/25 04:13:15;;;;;;;50.60;29.80;;;8.20;99.90;;;;;;6125632;23;20105;-91
2023/03/25 04:15:42;;;;;;;54.83;31.13;;;8.20;99.90;;;;;;6101073;23;20010;-90
2023/03/25 04:18:14;;;;;;;56.15;30.50;;;8.10;99.90;;;;;;6101058;23;20010;-90
2023/03/25 04:20:43;;;;;;;52.17;30.92;;;8.10;99.90;;;;;;6101076;23;20037;-90
2023/03/25 04:23:15;;;;;;;51.55;30.08;;;8.10;99.90;;;;;;6101354;23;20084;-91
2023/03/25 04:25:46;;;;;;;53.97;32.72;;;8.10;99.90;;;;;;6101029;23;20444;-90
2023/03/25 04:28:16;;;;;;;52.90;31.40;;;8.10;99.90;;;;;;6107851;23;20021;-90
2023/03/25 04:30:47;;;;;;;48.88;29.88;;;8.10;99.90;;;;;;6154797;23;20483;-91
2023/03/25 04:33:14;;;;;;;51.30;29.80;;;8.10;99.90;;;;;;6130276;23;20088;-89
2023/03/25 04:35:41;;;;;;;49.83;30.27;;;8.10;99.90;;;;;;6130327;23;20447;-91
2023/03/25 04:38:07;;;;;;;49.67;28.67;;;8.10;99.90;;;;;;6130087;23;20021;-89
2023/03/25 04:40:33;;;;;;;46.42;27.73;;;8.10;99.90;;;;;;6130332;23;20009;-91
2023/03/25 04:43:00;;;;;;;44.70;28.00;;;8.20;99.90;;;;;;6278405;22;20023;-91
2023/03/25 04:45:27;;;;;;;49.47;28.75;;;8.30;99.90;;;;;;6256715;22;20049;-90
2023/03/25 04:47:54;;;;;;;48.92;28.88;;;8.30;99.90;;;;;;6281627;22;20460;-90
2023/03/25 04:50:29;;;;;;;50.08;28.98;;;8.40;99.90;;;;;;6255989;22;20039;-91
2023/03/25 04:53:01;;;;;;;45.85;27.08;;;8.30;99.90;;;;;;6281394;22;20034;-91
2023/03/25 04:55:28;;;;;;;43.80;28.33;;;8.30;99.90;;;;;;6281568;22;20014;-90
2023/03/25 04:57:55;;;;;;;42.25;26.40;;;8.30;99.90;;;;;;6255847;22;20460;-90
2023/03/25 05:00:23;;;;;;;43.70;27.80;;;8.30;99.90;;;;;;6256593;22;20014;-91
2023/03/25 05:02:53;;;;;;;44.63;27.92;;;8.40;99.90;;;;;;6257742;22;20003;-89
2023/03/25 05:05:23;;;;;;;50.40;30.42;;;8.40;99.90;;;;;;6258260;22;20045;-91
2023/03/25 05:07:56;;;;;;;52.47;30.13;;;8.50;99.90;;;;;;6257911;22;20007;-92
2023/03/25 05:10:25;;;;;;;51.53;28.70;;;8.70;99.90;;;;;;6283569;22;20014;-90
2023/03/25 05:13:07;;;;;;;48.58;29.30;;;8.90;99.90;;;;;;6258244;22;20048;-92
2023/03/25 05:15:42;;;;;;;44.33;27.05;;;9.00;99.90;;;;;;6257901;22;20014;-91
2023/03/25 05:18:12;;;;;;;49.67;27.15;;;9.10;99.90;;;;;;6283882;22;20011;-91
2023/03/25 05:20:41;;;;;;;40.47;24.63;;;9.10;99.90;;;;;;6258046;22;20095;-90
2023/03/25 05:23:11;;;;;;;41.97;26.77;;;9.30;99.90;;;;;;6257692;22;20333;-91
2023/03/25 05:25:41;;;;;;;39.65;25.45;;;9.40;99.90;;;;;;6258089;22;20007;-91
2023/03/25 05:28:12;;;;;;;39.30;24.83;;;9.60;99.90;;;;;;6252345;22;20042;-90
2023/03/25 05:30:45;;;;;;;35.75;23.88;;;9.90;99.90;;;;;;6252557;22;20149;-90
2023/03/25 05:33:15;;;;;;;34.90;23.70;;;10.20;99.90;;;;;;6252556;22;20027;-93
2023/03/25 05:35:44;;;;;;;31.33;22.10;;;10.80;99.90;;;;;;6252517;22;20008;-90
2023/03/25 05:38:12;;;;;;;35.38;23.25;;;11.30;99.90;;;;;;6252552;22;20004;-90
2023/03/25 05:40:39;;;;;;;30.98;21.67;;;11.70;99.90;;;;;;6252521;22;20034;-91
2023/03/25 05:43:06;;;;;;;29.60;21.58;;;12.10;99.90;;;;;;6252614;22;20007;-91
2023/03/25 05:45:39;;;;;;;25.85;21.27;;;12.60;99.90;;;;;;6252539;22;20004;-92
2023/03/25 05:48:07;;;;;;;26.43;23.10;;;13.20;99.90;;;;;;6252518;22;20057;-91
2023/03/25 05:50:36;;;;;;;30.40;26.95;;;13.50;99.90;;;;;;6252479;22;20004;-91
2023/03/25 05:53:03;;;;;;;30.60;27.45;;;14.20;99.90;;;;;;6252134;22;20222;-91
2023/03/25 05:55:31;;;;;;;31.60;28.48;;;15.00;99.90;;;;;;6252291;22;20007;-91
2023/03/25 05:57:57;;;;;;;31.10;28.13;;;15.20;99.90;;;;;;6252074;22;20460;-91
2023/03/25 06:00:23;;;;;;;28.73;25.83;;;15.50;99.90;;;;;;6252451;22;20011;-93
2023/03/25 06:02:50;;;;;;;29.00;26.20;;;15.90;99.90;;;;;;6252349;22;20441;-92
2023/03/25 06:05:22;;;;;;;29.55;26.60;;;16.40;99.90;;;;;;6252254;22;20060;-91
2023/03/25 06:07:49;;;;;;;31.95;28.15;;;17.10;99.90;;;;;;6252283;22;20019;-91
2023/03/25 06:10:16;;;;;;;30.23;27.23;;;17.00;99.90;;;;;;6252198;22;20043;-91
2023/03/25 06:12:45;;;;;;;31.23;28.13;;;17.00;99.90;;;;;;6251566;22;20004;-92
2023/03/25 06:15:16;;;;;;;31.63;28.48;;;17.00;99.90;;;;;;6252333;22;20011;-92
2023/03/25 06:17:46;;;;;;;29.25;26.55;;;16.80;99.90;;;;;;6252406;22;20082;-92
2023/03/25 06:20:18;;;;;;;28.92;25.98;;;17.00;99.90;;;;;;6252035;22;20018;-92
2023/03/25 06:22:45;;;;;;;27.10;24.73;;;17.60;99.90;;;;;;6252017;22;20004;-90
2023/03/25 06:25:18;;;;;;;28.88;26.20;;;18.20;99.90;;;;;;6251934;22;20138;-92
2023/03/25 06:27:47;;;;;;;29.48;26.67;;;18.70;99.90;;;;;;6253242;22;20008;-93
2023/03/25 06:30:18;;;;;;;29.25;26.45;;;19.20;99.90;;;;;;6282677;22;20086;-92
2023/03/25 06:32:49;;;;;;;30.27;27.48;;;19.30;99.90;;;;;;6282910;22;20018;-91
2023/03/25 06:35:18;;;;;;;29.48;26.48;;;19.70;99.90;;;;;;6257389;22;20008;-91
2023/03/25 06:37:46;;;;;;;29.85;27.23;;;20.10;99.90;;;;;;6282493;22;20007;-91
2023/03/25 06:40:21;;;;;;;27.80;25.23;;;20.30;99.90;;;;;;6258332;22;20015;-93
2023/03/25 06:42:48;;;;;;;27.45;25.02;;;20.80;99.90;;;;;;6282429;22;20025;-93
2023/03/25 06:45:35;;;;;;;27.50;25.15;;;21.20;99.90;;;;;;6255777;22;20516;-92
2023/03/25 06:48:27;;;;;;;26.55;24.35;;;21.40;99.90;;;;;;6283820;22;20128;-93
2023/03/25 06:50:54;;;;;;;25.98;23.70;;;21.10;99.90;;;;;;6256805;22;20084;-93
2023/03/25 06:53:20;;;;;;;24.48;22.27;;;20.80;99.90;;;;;;6256910;22;20090;-92
2023/03/25 06:55:47;;;;;;;24.25;22.30;;;20.40;99.90;;;;;;6256987;22;20011;-91
2023/03/25 06:58:13;;;;;;;24.88;22.58;;;20.40;99.90;;;;;;6257886;22;20090;-92
2023/03/25 07:00:40;;;;;;;25.58;23.27;;;20.80;99.90;;;;;;6257031;22;20003;-92
2023/03/25 07:03:07;;;;;;;25.10;23.15;;;21.10;99.90;;;;;;6282472;22;20056;-93
2023/03/25 07:05:33;;;;;;;23.77;22.02;;;21.80;99.90;;;;;;6256536;22;20003;-93
2023/03/25 07:08:00;;;;;;;24.08;22.38;;;22.10;99.90;;;;;;6282320;22;20034;-93
2023/03/25 07:10:26;;;;;;;24.65;22.65;;;22.10;99.90;;;;;;6256768;22;20031;-93
2023/03/25 07:12:53;;;;;;;26.17;24.15;;;22.40;99.90;;;;;;6256562;22;20011;-92
2023/03/25 07:15:19;;;;;;;24.70;23.02;;;22.50;99.90;;;;;;6282305;22;20011;-92
2023/03/25 07:17:48;;;;;;;27.48;25.15;;;22.30;99.90;;;;;;6256711;22;20010;-92
2023/03/25 07:20:14;;;;;;;31.65;28.73;;;22.30;99.90;;;;;;6281987;22;20022;-92
2023/03/25 07:22:41;;;;;;;33.65;30.35;;;22.90;99.90;;;;;;6256534;22;20003;-91
2023/03/25 07:25:08;;;;;;;30.38;27.45;;;23.30;99.90;;;;;;6282255;22;20340;-91
2023/03/25 07:27:35;;;;;;;27.83;25.83;;;23.00;99.90;;;;;;6256651;22;20086;-90
2023/03/25 07:30:08;;;;;;;25.30;23.55;;;23.00;99.90;;;;;;6251735;22;20046;-92
2023/03/25 07:32:35;;;;;;;25.30;23.38;;;23.10;99.90;;;;;;6226398;22;20011;-91
2023/03/25 07:35:02;;;;;;;25.58;23.83;;;23.00;99.90;;;;;;6251212;22;20006;-90
2023/03/25 07:37:30;;;;;;;26.30;24.38;;;23.00;99.90;;;;;;6230004;22;20008;-88
2023/03/25 07:39:56;;;;;;;26.38;24.45;;;23.30;99.90;;;;;;6279816;22;20035;-84
2023/03/25 07:42:25;;;;;;;26.15;24.27;;;23.80;99.90;;;;;;6228526;22;20426;-87
2023/03/25 07:45:24;;;;;;;25.92;24.17;;;24.00;99.90;;;;;;6211077;22;20367;-91
2023/03/25 07:47:52;;;;;;;25.15;23.38;;;24.00;99.90;;;;;;6253674;22;20341;-89
2023/03/25 07:50:22;;;;;;;26.40;24.35;;;23.50;99.90;;;;;;6253704;22;20008;-87
2023/03/25 07:52:49;;;;;;;25.48;23.83;;;23.40;99.90;;;;;;6228669;22;20007;-90
2023/03/25 07:55:16;;;;;;;26.17;24.38;;;22.90;99.90;;;;;;6254289;22;20060;-92
2023/03/25 07:57:42;;;;;;;26.15;24.25;;;22.40;99.90;;;;;;6229024;22;20090;-88
2023/03/25 08:00:13;;;;;;;26.02;24.23;;;21.90;99.90;;;;;;6228209;22;20038;-86
2023/03/25 08:02:40;;;;;;;25.33;23.35;;;21.60;99.90;;;;;;6229826;22;20027;-93
2023/03/25 08:05:19;;;;;;;25.38;23.50;;;21.20;99.90;;;;;;6228747;22;20003;-94
2023/03/25 08:07:51;;;;;;;25.27;23.48;;;21.00;99.90;;;;;;6225984;22;20011;-93
2023/03/25 18:30:16;;;;;;;26.65;23.83;;;15.20;99.90;;;;;;6287405;22;20047;-91
2023/03/25 18:32:42;;;;;;;25.70;23.23;;;15.20;99.90;;;;;;6256923;22;20076;-92
2023/03/25 18:35:10;;;;;;;27.27;24.55;;;15.10;99.90;;;;;;6255457;22;20458;-93
2023/03/25 18:37:37;;;;;;;26.05;23.75;;;15.10;99.90;;;;;;6257721;22;20007;-93
2023/03/25 18:40:23;;;;;;;26.45;23.88;;;15.10;99.90;;;;;;6252242;22;20079;-91
2023/03/25 18:42:51;;;;;;;26.27;23.85;;;15.00;99.90;;;;;;6252180;22;20089;-92
2023/03/25 18:45:23;;;;;;;24.52;22.33;;;15.00;99.90;;;;;;6251982;22;20014;-90
2023/03/25 18:47:50;;;;;;;26.48;24.02;;;14.90;99.90;;;;;;6278215;22;20012;-93
2023/03/25 18:50:29;;;;;;;24.83;22.17;;;14.80;99.90;;;;;;6252116;22;20402;-93
2023/03/25 18:52:56;;;;;;;25.17;22.77;;;14.80;99.90;;;;;;6277668;22;20035;-91
2023/03/25 18:55:32;;;;;;;29.25;26.27;;;14.70;99.90;;;;;;6251809;22;20004;-94
2023/03/25 18:57:58;;;;;;;37.88;31.80;;;14.60;99.90;;;;;;6276992;22;20065;-93
2023/03/25 19:00:39;;;;;;;38.05;30.55;;;14.60;99.90;;;;;;6252312;22;20023;-93
2023/03/25 19:03:05;;;;;;;27.30;24.67;;;14.50;99.90;;;;;;6278162;22;20035;-91
2023/03/25 19:06:36;;;;;;;26.65;23.60;;;14.40;99.90;;;;;;6254449;22;20094;-93
2023/03/25 19:10:01;;;;;;;25.50;21.52;;;14.40;99.90;;;;;;6137715;23;20017;-92
2023/03/25 19:12:40;;;;;;;30.13;27.17;;;14.30;99.90;;;;;;6073248;23;20452;-93
2023/03/25 19:15:08;;;;;;;25.50;22.90;;;14.30;99.90;;;;;;6049560;23;20014;-93
2023/03/25 19:32:28;;;;;;;24.52;22.08;;;13.50;99.90;;;;;;6271352;22;20023;-94
2023/03/25 19:35:01;;;;;;;24.27;21.30;;;13.40;99.90;;;;;;6257209;22;20014;-94
2023/03/25 19:40:34;;;;;;;23.08;20.70;;;13.30;99.90;;;;;;6195444;22;20034;-93
2023/03/25 19:43:09;;;;;;;23.10;20.80;;;13.20;99.90;;;;;;6254121;22;20023;-93
2023/03/25 19:45:36;;;;;;;24.80;22.00;;;13.10;99.90;;;;;;6278723;22;20030;-92
2023/03/25 19:48:02;;;;;;;23.55;21.08;;;13.00;99.90;;;;;;6256748;22;20008;-93
2023/03/25 19:55:07;;;;;;;24.58;21.77;;;13.00;99.90;;;;;;6279110;22;20034;-93
2023/03/25 20:06:18;;;;;;;24.60;21.58;;;12.60;99.90;;;;;;6302398;22;20270;-91
2023/03/25 20:08:45;;;;;;;26.65;21.45;;;12.70;99.90;;;;;;6256754;22;20014;-93
2023/03/25 20:11:14;;;;;;;24.83;22.08;;;12.60;99.90;;;;;;6252085;22;20004;-95
2023/03/25 20:13:45;;;;;;;26.65;20.85;;;12.60;99.90;;;;;;6279957;22;20008;-91
2023/03/25 20:16:12;;;;;;;28.90;21.77;;;12.50;99.90;;;;;;6247539;23;20038;-94
2023/03/25 20:18:40;;;;;;;26.85;22.17;;;12.50;99.90;;;;;;6200755;23;20095;-93
2023/03/25 20:21:13;;;;;;;27.88;21.35;;;12.50;99.90;;;;;;6201416;23;20012;-92
2023/03/25 20:24:18;;;;;;;24.73;20.90;;;12.50;99.90;;;;;;6206292;23;20008;-94
2023/03/25 20:32:02;;;;;;;28.92;24.30;;;12.60;99.90;;;;;;6146677;22;20283;-93
2023/03/25 20:37:37;;;;;;;34.78;24.52;;;12.60;99.90;;;;;;6307542;22;20023;-93
2023/03/25 20:40:39;;;;;;;;;;;;;;;;;;;;;
2023/03/25 20:43:33;;;;;;;38.30;33.80;;;12.50;99.90;;;;;;6282175;22;20030;-93
2023/03/25 20:46:00;;;;;;;38.78;27.55;;;12.50;99.90;;;;;;6256993;22;20015;-91
2023/03/25 20:48:26;;;;;;;35.63;26.73;;;12.50;99.90;;;;;;6258211;22;20007;-92
2023/03/25 20:53:53;;;;;;;29.73;24.33;;;12.50;99.90;;;;;;6294792;22;20023;-90
2023/03/25 20:56:28;;;;;;;29.63;23.77;;;12.50;99.90;;;;;;6259168;22;20068;-94
2023/03/25 21:01:53;;;;;;;27.90;23.95;;;12.60;99.90;;;;;;6261526;22;20030;-91
2023/03/25 21:04:28;;;;;;;28.52;21.23;;;12.70;99.90;;;;;;6257671;22;20027;-92
2023/03/25 21:06:55;;;;;;;21.38;18.90;;;12.70;99.90;;;;;;6256412;22;20007;-93
2023/03/25 21:09:21;;;;;;;28.17;22.63;;;12.80;99.90;;;;;;6255942;22;20052;-91
2023/03/25 21:11:47;;;;;;;45.58;31.48;;;12.90;99.90;;;;;;6255765;22;20007;-93
2023/03/25 21:14:23;;;;;;;32.00;25.90;;;13.00;99.90;;;;;;6256625;22;20031;-94
2023/03/25 21:16:49;;;;;;;28.65;22.08;;;13.00;99.90;;;;;;6256731;22;20004;-93
2023/03/25 21:19:29;;;;;;;25.95;21.10;;;13.10;99.90;;;;;;6256369;22;20107;-92
2023/03/25 21:21:55;;;;;;;24.60;21.30;;;13.10;99.90;;;;;;6255552;22;20007;-91
2023/03/25 21:24:22;;;;;;;25.23;19.52;;;13.20;99.90;;;;;;6255797;22;20011;-88
2023/03/25 21:26:48;;;;;;;33.35;25.30;;;13.10;99.90;;;;;;6255564;22;20441;-92
2023/03/25 21:29:15;;;;;;;24.17;19.90;;;13.20;99.90;;;;;;6255852;22;20081;-93
2023/03/25 21:31:41;;;;;;;24.52;19.80;;;13.20;99.90;;;;;;6255628;22;20007;-90
2023/03/25 21:34:07;;;;;;;22.13;19.13;;;13.30;99.90;;;;;;6255832;22;20340;-91
2023/03/25 21:36:34;;;;;;;23.60;20.15;;;13.30;99.90;;;;;;6255996;22;20092;-89
2023/03/25 21:39:03;;;;;;;29.80;21.58;;;13.30;99.90;;;;;;6255646;22;20007;-92
2023/03/25 21:41:29;;;;;;;28.23;20.55;;;13.30;99.90;;;;;;6255678;22;20298;-90
2023/03/25 21:43:56;;;;;;;24.40;18.65;;;13.40;99.90;;;;;;6257281;22;20448;-89
2023/03/25 21:46:25;;;;;;;23.75;19.23;;;13.40;99.90;;;;;;6257403;22;20049;-89
2023/03/25 21:48:53;;;;;;;19.33;17.40;;;13.40;99.90;;;;;;6257471;22;20031;-90
2023/03/25 21:51:20;;;;;;;24.95;17.20;;;13.40;99.90;;;;;;6257446;22;20003;-90
2023/03/25 21:53:47;;;;;;;22.83;17.17;;;13.50;99.90;;;;;;6257759;22;20007;-92
2023/03/25 21:56:16;;;;;;;24.08;18.30;;;13.40;99.90;;;;;;6257385;22;20003;-92
2023/03/25 21:58:43;;;;;;;25.83;19.95;;;13.50;99.90;;;;;;6257337;22;20035;-94
2023/03/25 22:01:13;;;;;;;23.30;19.08;;;13.40;99.90;;;;;;6257116;22;20007;-90
2023/03/25 22:03:44;;;;;;;25.05;19.45;;;13.50;99.90;;;;;;6257157;22;20090;-90
2023/03/25 22:09:06;;;;;;;26.50;18.17;;;13.40;99.90;;;;;;6283336;22;20003;-91
2023/03/25 22:11:36;;;;;;;21.70;16.83;;;13.30;99.90;;;;;;6256988;22;20003;-91
2023/03/25 22:14:04;;;;;;;43.08;28.10;;;13.30;99.90;;;;;;6257573;22;20010;-92
2023/03/25 22:16:31;;;;;;;38.10;23.13;;;13.30;99.90;;;;;;6246502;23;20004;-91
2023/03/25 22:18:57;;;;;;;43.70;25.52;;;13.20;99.90;;;;;;6246466;23;20023;-90
2023/03/25 22:21:28;;;;;;;29.27;19.65;;;13.20;99.90;;;;;;6221116;23;20043;-91
2023/03/25 22:23:57;;;;;;;25.98;17.92;;;13.20;99.90;;;;;;6247065;22;20008;-91
2023/03/25 22:26:25;;;;;;;35.53;22.08;;;13.10;99.90;;;;;;6245983;23;20016;-91
2023/03/25 22:28:55;;;;;;;24.67;18.20;;;13.10;99.90;;;;;;6245961;23;20004;-91
2023/03/25 22:31:29;;;;;;;27.00;18.20;;;13.10;99.90;;;;;;6246077;23;20004;-93
2023/03/25 22:34:01;;;;;;;31.55;18.15;;;13.10;99.90;;;;;;6245939;22;20012;-92
2023/03/25 22:36:30;;;;;;;27.20;16.52;;;13.10;99.90;;;;;;6245655;23;20008;-91
2023/03/25 22:38:57;;;;;;;25.85;15.90;;;13.10;99.90;;;;;;6245813;23;20012;-90
2023/03/25 22:41:23;;;;;;;25.65;15.93;;;13.10;99.90;;;;;;6245546;23;20008;-91
2023/03/25 22:43:49;;;;;;;33.25;18.70;;;13.00;99.90;;;;;;6245622;22;19996;-93
2023/03/25 22:46:16;;;;;;;30.40;18.65;;;13.00;99.90;;;;;;6247335;23;20008;-93
2023/03/25 22:48:43;;;;;;;26.58;17.08;;;13.00;99.90;;;;;;6257431;22;20082;-93
2023/03/25 22:51:13;;;;;;;31.38;18.98;;;13.00;99.90;;;;;;6257042;22;20007;-91
2023/03/25 22:53:39;;;;;;;32.20;17.25;;;12.90;99.90;;;;;;6256512;22;20090;-93
2023/03/25 22:56:08;;;;;;;28.42;17.17;;;12.90;99.90;;;;;;6258163;22;20007;-91
2023/03/25 22:58:35;;;;;;;26.95;16.80;;;12.80;99.90;;;;;;6256764;22;20007;-92
2023/03/25 23:01:07;;;;;;;29.42;16.90;;;12.80;99.90;;;;;;6247090;22;20003;-93
2023/03/25 23:03:40;;;;;;;25.92;18.25;;;12.70;99.90;;;;;;6256341;22;20063;-91
2023/03/25 23:06:09;;;;;;;30.58;16.65;;;12.70;99.90;;;;;;6278963;22;20094;-92
2023/03/25 23:08:38;;;;;;;31.48;17.02;;;12.70;99.90;;;;;;6251597;22;20003;-93
2023/03/25 23:11:16;;;;;;;30.08;16.73;;;12.70;99.90;;;;;;6277455;22;20059;-91
2023/03/25 23:13:46;;;;;;;33.10;17.70;;;12.70;99.90;;;;;;6276998;22;20433;-93
2023/03/25 23:16:16;;;;;;;30.40;17.95;;;12.60;99.90;;;;;;6276953;22;20077;-94
2023/03/25 23:18:43;;;;;;;32.25;18.13;;;12.50;99.90;;;;;;6276976;22;20059;-93
2023/03/25 23:21:16;;;;;;;29.45;17.02;;;12.50;99.90;;;;;;6251420;22;20011;-92
2023/03/25 23:23:50;;;;;;;32.55;16.83;;;12.50;99.90;;;;;;6278973;22;20034;-90
2023/03/25 23:26:23;;;;;;;28.27;17.40;;;12.40;99.90;;;;;;6276664;22;20512;-92
2023/03/25 23:28:50;;;;;;;33.72;18.00;;;12.40;99.90;;;;;;6276698;22;20034;-91
2023/03/25 23:31:26;;;;;;;36.25;18.92;;;12.40;99.90;;;;;;6276614;22;20019;-92
2023/03/25 23:33:56;;;;;;;33.85;17.77;;;12.40;99.90;;;;;;6276784;22;20014;-91
2023/03/25 23:36:23;;;;;;;27.63;16.50;;;12.40;99.90;;;;;;6276635;22;20437;-91
2023/03/25 23:38:51;;;;;;;35.20;19.45;;;12.40;99.90;;;;;;6276405;22;20024;-91
2023/03/25 23:41:21;;;;;;;34.00;17.45;;;12.40;99.90;;;;;;6276671;22;20011;-91
2023/03/25 23:43:49;;;;;;;28.48;18.27;;;12.40;99.90;;;;;;6251299;22;20434;-90
2023/03/25 23:46:26;;;;;;;65.93;32.25;;;12.30;99.90;;;;;;6254427;22;20030;-93
2023/03/25 23:49:00;;;;;;;265.55;111.93;;;12.30;99.90;;;;;;6253161;22;20030;-94
2023/03/25 23:51:33;;;;;;;86.30;40.35;;;12.30;99.90;;;;;;6252376;22;20057;-93
2023/03/25 23:54:20;;;;;;;37.85;21.35;;;12.30;99.90;;;;;;6252762;22;20003;-93
2023/03/25 23:56:47;;;;;;;38.28;20.65;;;12.30;99.90;;;;;;6256181;22;20019;-92
2023/03/25 23:59:16;;;;;;;31.55;18.75;;;12.30;99.90;;;;;;6279362;22;20012;-94
